createdAt,value
2015-02-19T07:07:45.128Z,3922
2015-02-19T07:07:57.221Z,3528
2015-02-19T07:08:09.284Z,3571
2015-02-19T07:08:21.381Z,3608
2015-02-19T07:08:33.427Z,3628
2015-02-19T07:08:45.490Z,3645
2015-02-19T07:08:57.568Z,3620
2015-02-19T07:09:09.802Z,3639
2015-02-19T07:09:21.884Z,3181
2015-02-19T07:09:34.493Z,3316
2015-02-19T07:09:46.540Z,3286
2015-02-19T07:10:05.274Z,3396
2015-02-19T07:10:17.292Z,3343
2015-02-19T07:10:29.386Z,3456
2015-02-19T07:10:41.417Z,3942
2015-02-19T07:10:53.464Z,4033
2015-02-19T07:11:05.589Z,3334
2015-02-19T07:11:17.575Z,3569
2015-02-19T07:11:29.700Z,3295
2015-02-19T07:11:41.716Z,3477
2015-02-19T07:11:54.606Z,3602
2015-02-19T07:12:06.731Z,3666
2015-02-19T07:12:18.812Z,3659
2015-02-19T07:12:30.906Z,3741
2015-02-19T07:12:49.500Z,3731
2015-02-19T07:13:01.641Z,3713
2015-02-19T07:13:13.689Z,3776
2015-02-19T07:13:25.705Z,3766
2015-02-19T07:13:37.768Z,3818
2015-02-19T07:13:49.861Z,3786
2015-02-19T07:14:01.939Z,3793
2015-02-19T07:14:20.660Z,3860
2015-02-19T07:14:39.285Z,3897
2015-02-19T07:14:51.316Z,3850
2015-02-19T07:15:03.363Z,3782
2015-02-19T07:15:15.898Z,3843
2015-02-19T07:15:27.929Z,3853
2015-02-19T07:15:46.585Z,3900
2015-02-19T07:16:05.273Z,4223
2015-02-19T07:16:17.290Z,4257
2015-02-19T07:16:29.321Z,4275
2015-02-19T07:16:41.337Z,4310
2015-02-19T07:16:53.353Z,4202
2015-02-19T07:17:05.306Z,4255
2015-02-19T07:17:17.308Z,4192
2015-02-19T07:17:29.386Z,4264
2015-02-19T07:17:48.105Z,4235
2015-02-19T07:18:00.136Z,4281
2015-02-19T07:18:18.841Z,4254
2015-02-19T07:18:37.482Z,4289
2015-02-19T07:18:49.529Z,4351
2015-02-19T07:19:01.607Z,4351
2015-02-19T07:19:13.654Z,4386
2015-02-19T07:19:32.328Z,4377
2015-02-19T07:19:44.360Z,4439
2015-02-19T07:19:56.453Z,4632
2015-02-19T07:20:08.532Z,4503
2015-02-19T07:20:20.674Z,4484
2015-02-19T07:20:39.393Z,4593
2015-02-19T07:20:51.409Z,4731
2015-02-19T07:21:10.096Z,4720
2015-02-19T07:21:28.770Z,4675
2015-02-19T07:21:40.911Z,4889
2015-02-19T07:21:53.020Z,4862
2015-02-19T07:22:05.114Z,4857
2015-02-19T07:22:17.114Z,4932
2015-02-19T07:22:35.788Z,5057
2015-02-19T07:22:47.819Z,4979
2015-02-19T07:22:59.866Z,5019
2015-02-19T07:23:11.928Z,5102
2015-02-19T07:23:23.978Z,5046
2015-02-19T07:23:36.025Z,5001
2015-02-19T07:23:48.025Z,4992
2015-02-19T07:24:00.041Z,5094
2015-02-19T07:24:12.103Z,5163
2015-02-19T07:24:24.261Z,5224
2015-02-19T07:24:36.324Z,5280
2015-02-19T07:24:55.089Z,5487
2015-02-19T07:25:07.199Z,4992
2015-02-19T07:25:19.279Z,5776
2015-02-19T07:25:31.341Z,5726
2015-02-19T07:25:49.966Z,5366
2015-02-19T07:26:01.951Z,5654
2015-02-19T07:26:13.982Z,5652
2015-02-19T07:26:26.062Z,5677
2015-02-19T07:26:38.078Z,2481
2015-02-19T07:26:56.718Z,5185
2015-02-19T07:27:08.797Z,5270
2015-02-19T07:27:20.909Z,5315
2015-02-19T07:27:32.893Z,5277
2015-02-19T07:27:44.909Z,5357
2015-02-19T07:27:57.003Z,5365
2015-02-19T07:28:09.112Z,5372
2015-02-19T07:28:21.178Z,5441
2015-02-19T07:28:33.256Z,5521
2015-02-19T07:28:45.271Z,5664
2015-02-19T07:28:57.396Z,5559
2015-02-19T07:29:09.474Z,5753
2015-02-19T07:29:21.461Z,5823
2015-02-19T07:29:33.445Z,5770
2015-02-19T07:29:45.539Z,5947
2015-02-19T07:30:04.258Z,6060
2015-02-19T07:30:16.351Z,6252
2015-02-19T07:30:28.416Z,6256
2015-02-19T07:30:40.478Z,6156
2015-02-19T07:30:52.494Z,6263
2015-02-19T07:31:04.557Z,6244
2015-02-19T07:31:23.246Z,6335
2015-02-19T07:31:35.324Z,6388
2015-02-19T07:31:54.043Z,6396
2015-02-19T07:32:12.715Z,6694
2015-02-19T07:32:24.749Z,6672
2015-02-19T07:32:36.780Z,6777
2015-02-19T07:33:02.093Z,6944
2015-02-19T07:33:14.077Z,6986
2015-02-19T07:33:26.204Z,7150
2015-02-19T07:33:38.329Z,7236
2015-02-19T07:33:50.439Z,7521
2015-02-19T07:34:02.485Z,7378
2015-02-19T07:34:14.564Z,7365
2015-02-19T07:34:26.628Z,7641
2015-02-19T07:34:45.300Z,7564
2015-02-19T07:34:57.331Z,7714
2015-02-19T07:35:09.362Z,7727
2015-02-19T07:35:21.364Z,7809
2015-02-19T07:35:33.427Z,7741
2015-02-19T07:35:52.146Z,7977
2015-02-19T07:36:04.177Z,8013
2015-02-19T07:36:16.302Z,7949
2015-02-19T07:36:28.321Z,8093
2015-02-19T07:36:47.008Z,8145
2015-02-19T07:36:59.008Z,8222
2015-02-19T07:37:11.086Z,8250
2015-02-19T07:37:23.120Z,8184
2015-02-19T07:37:35.120Z,8211
2015-02-19T07:37:47.214Z,8238
2015-02-19T07:37:59.214Z,8245
2015-02-19T07:38:11.230Z,8173
2015-02-19T07:38:23.279Z,8444
2015-02-19T07:38:41.888Z,8636
2015-02-19T07:38:53.951Z,8756
2015-02-19T07:39:12.560Z,8606
2015-02-19T07:39:24.656Z,9154
2015-02-19T07:39:36.687Z,9221
2015-02-19T07:39:48.703Z,9336
2015-02-19T07:40:00.703Z,9583
2015-02-19T07:40:19.359Z,9388
2015-02-19T07:40:31.423Z,9557
2015-02-19T07:40:43.455Z,9631
2015-02-19T07:41:02.158Z,9890
2015-02-19T07:41:14.220Z,9815
2015-02-19T07:41:26.239Z,10007
2015-02-19T07:41:38.348Z,10176
2015-02-19T07:41:50.379Z,10226
2015-02-19T07:42:02.395Z,10225
2015-02-19T07:42:14.442Z,10210
2015-02-19T07:42:33.085Z,10039
2015-02-19T07:42:51.710Z,10210
2015-02-19T07:43:10.335Z,10385
2015-02-19T07:43:22.366Z,10286
2015-02-19T07:43:34.368Z,10510
2015-02-19T07:43:46.430Z,10457
2015-02-19T07:43:58.508Z,10559
2015-02-19T07:44:17.149Z,10786
2015-02-19T07:44:29.167Z,10788
2015-02-19T07:44:41.198Z,10628
2015-02-19T07:44:53.229Z,10959
2015-02-19T07:45:05.339Z,11143
2015-02-19T07:45:17.370Z,11410
2015-02-19T07:45:29.481Z,11241
2015-02-19T07:45:41.497Z,11337
2015-02-19T07:45:53.544Z,11308
2015-02-19T07:46:12.356Z,11549
2015-02-19T07:46:24.422Z,11529
2015-02-19T07:46:43.031Z,11731
2015-02-19T07:46:55.047Z,11752
2015-02-19T07:47:13.719Z,12007
2015-02-19T07:47:32.392Z,11784
2015-02-19T07:47:44.486Z,11795
2015-02-19T07:47:56.502Z,11772
2015-02-19T07:48:08.627Z,11748
2015-02-19T07:48:20.658Z,11802
2015-02-19T07:48:39.395Z,11863
2015-02-19T07:48:51.380Z,12117
2015-02-19T07:49:03.489Z,12007
2015-02-19T07:49:22.208Z,11905
2015-02-19T07:49:34.304Z,11778
2015-02-19T07:49:52.960Z,11958
2015-02-19T07:50:05.116Z,11686
2015-02-19T07:50:17.132Z,11698
2015-02-19T07:50:35.822Z,11831
2015-02-19T07:50:47.807Z,11696
2015-02-19T07:50:59.916Z,12053
2015-02-19T07:51:18.525Z,11911
2015-02-19T07:51:30.510Z,11900
2015-02-19T07:51:49.199Z,12075
2015-02-19T07:52:07.934Z,12132
2015-02-19T07:52:26.684Z,12451
2015-02-19T07:52:38.764Z,12486
2015-02-19T07:52:50.858Z,12612
2015-02-19T07:53:02.967Z,12589
2015-02-19T07:53:14.998Z,12824
2015-02-19T07:53:27.076Z,12631
2015-02-19T07:53:45.891Z,12794
2015-02-19T07:53:57.953Z,12861
2015-02-19T07:54:16.625Z,13080
2015-02-19T07:54:28.688Z,13003
2015-02-19T07:54:40.800Z,12899
2015-02-19T07:54:52.956Z,13073
2015-02-19T07:55:05.050Z,13036
2015-02-19T07:55:17.144Z,13169
2015-02-19T07:55:29.222Z,13455
2015-02-19T07:55:47.958Z,13634
2015-02-19T07:56:00.021Z,13688
2015-02-19T07:56:18.833Z,13763
2015-02-19T07:56:30.896Z,13941
2015-02-19T07:56:49.539Z,14112
2015-02-19T07:57:01.571Z,14377
2015-02-19T07:57:13.602Z,14362
2015-02-19T07:57:32.258Z,14641
2015-02-19T07:57:44.291Z,14436
2015-02-19T07:57:56.338Z,14837
2015-02-19T07:58:08.338Z,14956
2015-02-19T07:58:20.448Z,14708
2015-02-19T07:58:39.090Z,15004
2015-02-19T07:58:51.184Z,15009
2015-02-19T07:59:03.278Z,14997
2015-02-19T07:59:15.278Z,14755
2015-02-19T07:59:33.981Z,15131
2015-02-19T07:59:46.061Z,15209
2015-02-19T07:59:58.092Z,15415
2015-02-19T08:00:10.202Z,15416
2015-02-19T08:00:22.202Z,15574
2015-02-19T08:00:40.830Z,15479
2015-02-19T08:00:52.861Z,15440
2015-02-19T08:01:11.548Z,15509
2015-02-19T08:01:23.627Z,15591
2015-02-19T08:01:35.689Z,15661
2015-02-19T08:01:47.786Z,15825
2015-02-19T08:01:59.864Z,15596
2015-02-19T08:02:11.895Z,16071
2015-02-19T08:02:23.989Z,16138
2015-02-19T08:02:36.051Z,15894
2015-02-19T08:02:48.085Z,15864
2015-02-19T08:03:00.319Z,16076
2015-02-19T08:03:12.444Z,15820
2015-02-19T08:03:24.507Z,15727
2015-02-19T08:03:36.585Z,15767
2015-02-19T08:03:48.665Z,15780
2015-02-19T08:04:00.712Z,15731
2015-02-19T08:04:12.790Z,15726
2015-02-19T08:04:31.462Z,15873
2015-02-19T08:04:43.511Z,15985
2015-02-19T08:04:55.557Z,16444
2015-02-19T08:05:14.261Z,16332
2015-02-19T08:05:26.292Z,16628
2015-02-19T08:05:38.386Z,16685
2015-02-19T08:05:50.435Z,16886
2015-02-19T08:06:09.154Z,16916
2015-02-19T08:06:21.123Z,17640
2015-02-19T08:06:33.185Z,17420
2015-02-19T08:06:45.219Z,17848
2015-02-19T08:06:57.266Z,18251
2015-02-19T08:07:09.297Z,18289
2015-02-19T08:07:27.937Z,18423
2015-02-19T08:07:39.953Z,18138
2015-02-19T08:07:51.971Z,17942
2015-02-19T08:08:04.064Z,15157
2015-02-19T08:08:16.064Z,15219
2015-02-19T08:08:28.189Z,15382
2015-02-19T08:08:40.252Z,15292
2015-02-19T08:08:52.270Z,15310
2015-02-19T08:09:04.410Z,15382
2015-02-19T08:09:16.535Z,15706
2015-02-19T08:09:28.535Z,15671
2015-02-19T08:09:47.194Z,15908
2015-02-19T08:09:59.319Z,16187
2015-02-19T08:10:11.335Z,16181
2015-02-19T08:10:30.054Z,16328
2015-02-19T08:10:48.806Z,16238
2015-02-19T08:11:13.962Z,16562
2015-02-19T08:11:25.978Z,16299
2015-02-19T08:11:44.683Z,16268
2015-02-19T08:11:56.714Z,16481
2015-02-19T08:12:08.745Z,16561
2015-02-19T08:12:20.933Z,19234
2015-02-19T08:12:46.186Z,19271
2015-02-19T08:12:58.233Z,19050
2015-02-19T08:13:10.342Z,19102
2015-02-19T08:13:22.405Z,19400
2015-02-19T08:13:34.467Z,15972
2015-02-19T08:13:46.532Z,16295
2015-02-19T08:13:58.625Z,16485
2015-02-19T08:14:17.328Z,16575
2015-02-19T08:14:29.391Z,16669
2015-02-19T08:14:48.112Z,16881
2015-02-19T08:15:00.315Z,17105
2015-02-19T08:15:12.377Z,17021
2015-02-19T08:15:24.409Z,20452
2015-02-19T08:15:36.471Z,20362
2015-02-19T08:15:48.552Z,20866
2015-02-19T08:16:00.630Z,20908
2015-02-19T08:16:19.271Z,21097
2015-02-19T08:16:31.271Z,21451
2015-02-19T08:16:43.412Z,21251
2015-02-19T08:16:55.523Z,21159
2015-02-19T08:17:07.539Z,21551
2015-02-19T08:17:23.195Z,21755
2015-02-19T08:17:35.320Z,22180
2015-02-19T08:17:47.369Z,22296
2015-02-19T08:18:06.056Z,22931
2015-02-19T08:18:18.087Z,23185
2015-02-19T08:18:36.775Z,23136
2015-02-19T08:18:48.840Z,23515
2015-02-19T08:19:00.872Z,23853
2015-02-19T08:19:19.528Z,24248
2015-02-19T08:19:31.622Z,24404
2015-02-19T08:19:43.653Z,24700
2015-02-19T08:19:55.702Z,25063
2015-02-19T08:20:07.811Z,24752
2015-02-19T08:20:19.905Z,25432
2015-02-19T08:20:31.952Z,25318
2015-02-19T08:20:44.077Z,25713
2015-02-19T08:20:56.126Z,26341
2015-02-19T08:21:08.157Z,26067
2015-02-19T08:21:20.219Z,25895
2015-02-19T08:21:38.860Z,25914
2015-02-19T08:21:57.535Z,25889
2015-02-19T08:22:09.597Z,26045
2015-02-19T08:22:21.707Z,26169
2015-02-19T08:22:33.769Z,26332
2015-02-19T08:22:45.785Z,26195
2015-02-19T08:22:57.881Z,26344
2015-02-19T08:23:09.881Z,26469
2015-02-19T08:23:21.990Z,26763
2015-02-19T08:23:40.693Z,26854
2015-02-19T08:23:59.398Z,26921
2015-02-19T08:24:18.086Z,27438
2015-02-19T08:24:36.789Z,27321
2015-02-19T08:24:48.851Z,27789
2015-02-19T08:25:00.902Z,27993
2015-02-19T08:25:12.965Z,28476
2015-02-19T08:25:31.652Z,28279
2015-02-19T08:25:43.699Z,28082
2015-02-19T08:25:55.807Z,28478
2015-02-19T08:26:14.604Z,28571
2015-02-19T08:26:26.651Z,28720
2015-02-19T08:26:38.713Z,28343
2015-02-19T08:26:50.791Z,28978
2015-02-19T08:27:02.884Z,29045
2015-02-19T08:27:15.009Z,28997
2015-02-19T08:27:27.072Z,29601
2015-02-19T08:27:45.728Z,29801
2015-02-19T08:28:04.445Z,30022
2015-02-19T08:28:16.570Z,29725
2015-02-19T08:28:28.602Z,29598
2015-02-19T08:28:47.258Z,29921
2015-02-19T08:28:59.303Z,29930
2015-02-19T08:29:18.006Z,29596
2015-02-19T08:29:30.084Z,29685
2015-02-19T08:29:42.162Z,29709
2015-02-19T08:29:54.209Z,29302
2015-02-19T08:30:06.238Z,29723
2015-02-19T08:30:18.347Z,30029
2015-02-19T08:30:37.066Z,25834
2015-02-19T08:30:55.980Z,25251
2015-02-19T08:31:08.121Z,25520
2015-02-19T08:31:23.308Z,31060
2015-02-19T08:31:36.605Z,31318
2015-02-19T08:31:50.308Z,31603
2015-02-19T08:32:04.330Z,31022
2015-02-19T08:32:25.174Z,30834
2015-02-19T08:32:40.939Z,30780
2015-02-19T08:32:57.009Z,31197
2015-02-19T08:33:13.150Z,31453
2015-02-19T08:33:27.290Z,31742
2015-02-19T08:33:40.993Z,32057
2015-02-19T08:33:54.712Z,32071
2015-02-19T08:34:10.844Z,32180
2015-02-19T08:34:33.000Z,32389
2015-02-19T08:34:53.297Z,31693
2015-02-19T08:35:06.944Z,31140
2015-02-19T08:35:18.991Z,30570
2015-02-19T08:35:37.663Z,30267
2015-02-19T08:35:49.725Z,30573
2015-02-19T08:36:01.838Z,28894
2015-02-19T08:36:13.932Z,28248
2015-02-19T08:36:32.651Z,27591
2015-02-19T08:36:44.667Z,27584
2015-02-19T08:36:56.745Z,28063
2015-02-19T08:37:08.811Z,27746
2015-02-19T08:37:20.905Z,27809
2015-02-19T08:37:32.936Z,27680
2015-02-19T08:37:51.655Z,27528
2015-02-19T08:38:03.862Z,27616
2015-02-19T08:38:15.846Z,27392
2015-02-19T08:38:27.909Z,27360
2015-02-19T08:38:46.596Z,27626
2015-02-19T08:39:05.694Z,27444
2015-02-19T08:39:18.382Z,27030
2015-02-19T08:39:30.960Z,26637
2015-02-19T08:39:43.132Z,26330
2015-02-19T08:39:55.632Z,25582
2015-02-19T08:40:08.120Z,25212
2015-02-19T08:40:20.729Z,25224
2015-02-19T08:40:33.479Z,24708
2015-02-19T08:40:52.651Z,24751
2015-02-19T08:41:05.295Z,24202
2015-02-19T08:41:18.123Z,24535
2015-02-19T08:41:30.904Z,24543
2015-02-19T08:41:43.170Z,24978
2015-02-19T08:41:55.217Z,24696
2015-02-19T08:42:07.375Z,24704
2015-02-19T08:42:19.469Z,25247
2015-02-19T08:42:31.469Z,25291
2015-02-19T08:42:43.531Z,25445
2015-02-19T08:43:02.237Z,25490
2015-02-19T08:43:14.269Z,25357
2015-02-19T08:43:26.237Z,25415
2015-02-19T08:43:38.394Z,25821
2015-02-19T08:43:50.425Z,25407
2015-02-19T08:44:02.427Z,25265
2015-02-19T08:44:27.755Z,24652
2015-02-19T08:44:39.802Z,24379
2015-02-19T08:44:51.833Z,23878
2015-02-19T08:45:03.884Z,23464
2015-02-19T08:45:15.962Z,23271
2015-02-19T08:45:34.603Z,22861
2015-02-19T08:45:53.290Z,22951
2015-02-19T08:46:11.980Z,22658
2015-02-19T08:46:30.714Z,22568
2015-02-19T08:46:42.792Z,22807
2015-02-19T08:46:54.792Z,22653
2015-02-19T08:47:06.872Z,22612
2015-02-19T08:47:25.607Z,22352
2015-02-19T08:47:37.654Z,22272
2015-02-19T08:47:49.747Z,22113
2015-02-19T08:48:01.797Z,21927
2015-02-19T08:48:13.891Z,21673
2015-02-19T08:48:32.579Z,21449
2015-02-19T08:48:44.657Z,22088
2015-02-19T08:48:56.688Z,21859
2015-02-19T08:49:08.769Z,22344
2015-02-19T08:50:13.116Z,22638
2015-02-19T08:50:25.210Z,25063
2015-02-19T08:50:37.303Z,25330
2015-02-19T08:50:49.366Z,25666
2015-02-19T08:51:01.444Z,25366
2015-02-19T08:51:13.993Z,25125
2015-02-19T08:51:35.649Z,24790
2015-02-19T08:51:48.071Z,24317
2015-02-19T08:52:09.761Z,24694
2015-02-19T08:52:29.543Z,24826
2015-02-19T08:52:41.621Z,24684
2015-02-19T08:52:53.699Z,24692
2015-02-19T08:53:05.810Z,24285
2015-02-19T08:53:24.545Z,24175
2015-02-19T08:53:36.623Z,24180
2015-02-19T08:53:55.310Z,24387
2015-02-19T08:54:07.453Z,24750
2015-02-19T08:54:19.531Z,25168
2015-02-19T08:54:38.219Z,25862
2015-02-19T08:54:50.328Z,26448
2015-02-19T08:55:02.390Z,26803
2015-02-19T08:55:14.439Z,27036
2015-02-19T08:55:26.502Z,26601
2015-02-19T08:55:38.580Z,26847
2015-02-19T08:55:50.642Z,27082
2015-02-19T08:56:09.285Z,26954
2015-02-19T08:56:21.410Z,26581
2015-02-19T08:56:33.535Z,26865
2015-02-19T08:56:45.676Z,26910
2015-02-19T08:56:57.848Z,27084
2015-02-19T08:57:09.913Z,26989
2015-02-19T08:57:21.944Z,26186
2015-02-19T08:57:34.038Z,25661
2015-02-19T08:57:46.085Z,26140
2015-02-19T08:57:58.101Z,25916
2015-02-19T08:58:10.196Z,26116
2015-02-19T08:58:22.181Z,25792
2015-02-19T08:58:34.259Z,26173
2015-02-19T08:58:46.337Z,26333
2015-02-19T08:58:58.868Z,26392
2015-02-19T08:59:10.948Z,26296
2015-02-19T08:59:22.917Z,26822
2015-02-19T08:59:34.964Z,26869
2015-02-19T08:59:53.651Z,27482
2015-02-19T09:00:05.651Z,27645
2015-02-19T09:00:17.733Z,28125
2015-02-19T09:00:29.826Z,28227
2015-02-19T09:00:41.811Z,28736
2015-02-19T09:01:00.404Z,29043
2015-02-19T09:01:12.485Z,28890
2015-02-19T09:01:24.594Z,28462
2015-02-19T09:01:36.641Z,28030
2015-02-19T09:01:48.703Z,27326
2015-02-19T09:02:00.750Z,26893
2015-02-19T09:02:12.830Z,26575
2015-02-19T09:02:24.908Z,26389
2015-02-19T09:02:50.096Z,26115
2015-02-19T09:03:02.377Z,25891
2015-02-19T09:03:21.130Z,24373
2015-02-19T09:03:33.224Z,25018
2015-02-19T09:03:45.349Z,25400
2015-02-19T09:03:57.427Z,25710
2015-02-19T09:04:09.507Z,25679
2015-02-19T09:04:21.945Z,22027
2015-02-19T09:04:34.617Z,22471
2015-02-19T09:04:46.898Z,21820
2015-02-19T09:05:00.288Z,22398
2015-02-19T09:05:13.010Z,22487
2015-02-19T09:05:25.823Z,22821
2015-02-19T09:05:38.838Z,23119
2015-02-19T09:05:57.838Z,23620
2015-02-19T09:06:10.715Z,23690
2015-02-19T09:06:23.122Z,22813
2015-02-19T09:06:35.653Z,23346
2015-02-19T09:06:48.434Z,23281
2015-02-19T09:07:00.856Z,23604
2015-02-19T09:07:13.375Z,23925
2015-02-19T09:07:25.656Z,23696
2015-02-19T09:07:44.765Z,23389
2015-02-19T09:07:58.046Z,23702
2015-02-19T09:08:10.361Z,23680
2015-02-19T09:08:22.408Z,23929
2015-02-19T09:08:34.423Z,23893
2015-02-19T09:08:46.502Z,23665
2015-02-19T09:08:58.533Z,23428
2015-02-19T09:09:10.566Z,23492
2015-02-19T09:09:23.097Z,23404
2015-02-19T09:10:44.631Z,24811
2015-02-19T09:10:56.709Z,25020
2015-02-19T09:11:08.756Z,25713
2015-02-19T09:11:20.898Z,28604
2015-02-19T09:11:32.945Z,28768
2015-02-19T09:11:44.961Z,28836
2015-02-19T09:11:57.039Z,28901
2015-02-19T09:12:09.070Z,28810
2015-02-19T09:12:21.198Z,28189
2015-02-19T09:12:33.229Z,27994
2015-02-19T09:12:51.932Z,27629
2015-02-19T09:13:04.511Z,27278
2015-02-19T09:13:16.528Z,27208
2015-02-19T09:13:35.294Z,24110
2015-02-19T09:13:53.981Z,23638
2015-02-19T09:14:06.434Z,23299
2015-02-19T09:14:18.452Z,23183
2015-02-19T09:14:37.905Z,24145
2015-02-19T09:14:56.515Z,24526
2015-02-19T09:15:15.174Z,24919
2015-02-19T09:15:27.299Z,27394
2015-02-19T09:15:39.393Z,26234
2015-02-19T09:15:51.518Z,24691
2015-02-19T09:16:10.143Z,29699
2015-02-19T09:16:22.238Z,29937
2015-02-19T09:16:34.270Z,30161
2015-02-19T09:16:46.348Z,29937
2015-02-19T09:16:58.426Z,29745
2015-02-19T09:17:17.131Z,30382
2015-02-19T09:17:29.209Z,29636
2015-02-19T09:17:41.272Z,29757
2015-02-19T09:17:53.350Z,29428
2015-02-19T09:18:05.397Z,29272
2015-02-19T09:18:17.462Z,29252
2015-02-19T09:18:36.181Z,30088
2015-02-19T09:18:48.243Z,30379
2015-02-19T09:19:00.384Z,31154
2015-02-19T09:19:12.462Z,31303
2015-02-19T09:19:24.511Z,31650
2015-02-19T09:19:36.652Z,31429
2015-02-19T09:19:48.698Z,30714
2015-02-19T09:20:00.777Z,25558
2015-02-19T09:20:12.839Z,24963
2015-02-19T09:20:24.998Z,25244
2015-02-19T09:20:37.092Z,24830
2015-02-19T09:20:49.155Z,25530
2015-02-19T09:21:01.248Z,25358
2015-02-19T09:21:13.389Z,25388
2015-02-19T09:21:32.110Z,25921
2015-02-19T09:21:44.172Z,26470
2015-02-19T09:22:02.907Z,25977
2015-02-19T09:22:15.063Z,25872
2015-02-19T09:22:27.127Z,24222
2015-02-19T09:22:39.205Z,25345
2015-02-19T09:22:51.221Z,26718
2015-02-19T09:23:03.440Z,26193
2015-02-19T09:23:15.737Z,27044
2015-02-19T09:23:40.990Z,30759
2015-02-19T09:24:06.287Z,30869
2015-02-19T09:24:24.960Z,30218
2015-02-19T09:24:37.085Z,29527
2015-02-19T09:24:55.789Z,28983
2015-02-19T09:25:07.960Z,28573
2015-02-19T09:25:26.650Z,27507
2015-02-19T09:25:38.775Z,27304
2015-02-19T09:25:50.853Z,27444
2015-02-19T09:26:09.541Z,28046
2015-02-19T09:26:21.669Z,27919
2015-02-19T09:26:33.715Z,27505
2015-02-19T09:26:45.825Z,27257
2015-02-19T09:26:57.887Z,26473
2015-02-19T09:27:09.919Z,25226
2015-02-19T09:27:21.921Z,25577
2015-02-19T09:27:33.936Z,24308
2015-02-19T09:27:46.014Z,24502
2015-02-19T09:27:58.139Z,24372
2015-02-19T09:28:10.139Z,24033
2015-02-19T09:28:28.877Z,23566
2015-02-19T09:28:47.627Z,23282
2015-02-19T09:28:59.752Z,23065
2015-02-19T09:29:11.799Z,22791
2015-02-19T09:29:23.909Z,22684
2015-02-19T09:29:42.628Z,22067
2015-02-19T09:29:54.675Z,21584
2015-02-19T09:30:06.690Z,21248
2015-02-19T09:30:18.768Z,21005
2015-02-19T09:30:30.803Z,20839
2015-02-19T09:30:56.084Z,20455
2015-02-19T09:31:08.146Z,21157
2015-02-19T09:31:20.271Z,20675
2015-02-19T09:31:38.961Z,21401
2015-02-19T09:31:51.070Z,21214
2015-02-19T09:32:03.117Z,20909
2015-02-19T09:32:15.211Z,21029
2015-02-19T09:32:27.261Z,20926
2015-02-19T09:32:39.448Z,20846
2015-02-19T09:32:51.495Z,20607
2015-02-19T09:33:10.354Z,20363
2015-02-19T09:33:22.433Z,20437
2015-02-19T09:33:34.966Z,20305
2015-02-19T09:33:53.935Z,19865
2015-02-19T09:34:06.356Z,20282
2015-02-19T09:34:19.794Z,20410
2015-02-19T09:34:32.233Z,20740
2015-02-19T09:34:52.218Z,21223
2015-02-19T09:35:04.968Z,21170
2015-02-19T09:35:24.174Z,20957
2015-02-19T09:35:39.018Z,20752
2015-02-19T09:35:58.065Z,20594
2015-02-19T09:36:17.236Z,20168
2015-02-19T09:36:29.457Z,19921
2015-02-19T09:36:42.285Z,19724
2015-02-19T09:36:54.395Z,19090
2015-02-19T09:37:06.395Z,19271
2015-02-19T09:37:18.426Z,18979
2015-02-19T09:37:31.162Z,19314
2015-02-19T09:37:43.334Z,19327
2015-02-19T09:37:55.412Z,18903
2015-02-19T09:38:14.350Z,19329
2015-02-19T09:38:26.461Z,19813
2015-02-19T09:38:52.039Z,19860
2015-02-19T09:39:17.461Z,19328
2015-02-19T09:39:36.136Z,20252
2015-02-19T09:39:54.808Z,20391
2015-02-19T09:40:13.480Z,20244
2015-02-19T09:40:25.809Z,20002
2015-02-19T09:40:37.887Z,19599
2015-02-19T09:40:51.043Z,19249
2015-02-19T09:41:09.856Z,19232
2015-02-19T09:41:29.171Z,19518
2015-02-19T09:41:47.828Z,20134
2015-02-19T09:41:59.906Z,20178
2015-02-19T09:42:12.234Z,19931
2015-02-19T09:42:24.484Z,19835
2015-02-19T09:42:43.376Z,19639
2015-02-19T09:42:55.423Z,19644
2015-02-19T09:43:14.142Z,19649
2015-02-19T09:43:33.770Z,19927
2015-02-19T09:43:45.817Z,20314
2015-02-19T09:43:57.989Z,20766
2015-02-19T09:44:09.989Z,21138
2015-02-19T09:44:22.942Z,21317
2015-02-19T09:44:35.054Z,21147
2015-02-19T09:44:47.086Z,20952
2015-02-19T09:44:59.929Z,20634
2015-02-19T09:45:12.101Z,20887
2015-02-19T09:45:24.117Z,21219
2015-02-19T09:45:43.133Z,20528
2015-02-19T09:45:55.352Z,20389
2015-02-19T09:46:07.962Z,19835
2015-02-19T09:46:19.946Z,19787
2015-02-19T09:46:32.465Z,19591
2015-02-19T09:46:44.496Z,19788
2015-02-19T09:46:56.511Z,19371
2015-02-19T09:47:09.340Z,19502
2015-02-19T09:47:21.418Z,19533
2015-02-19T09:47:33.435Z,19858
2015-02-19T09:47:45.513Z,19962
2015-02-19T09:48:04.154Z,19623
2015-02-19T09:48:16.248Z,19602
2015-02-19T09:48:28.406Z,19686
2015-02-19T09:48:40.469Z,19413
2015-02-19T09:49:06.219Z,19235
2015-02-19T09:49:25.203Z,19226
2015-02-19T09:49:37.315Z,19553
2015-02-19T09:49:49.409Z,19347
2015-02-19T09:50:08.112Z,18803
2015-02-19T09:50:20.143Z,18841
2015-02-19T09:50:32.208Z,18909
2015-02-19T09:50:44.349Z,18961
2015-02-19T09:50:56.442Z,19461
2015-02-19T09:51:08.442Z,20083
2015-02-19T09:51:20.552Z,19973
2015-02-19T09:51:32.585Z,19899
2015-02-19T09:51:44.585Z,19981
2015-02-19T09:51:56.679Z,19945
2015-02-19T09:52:08.726Z,20053
2015-02-19T09:52:20.772Z,20065
2015-02-19T09:52:32.900Z,19990
2015-02-19T09:52:51.619Z,19738
2015-02-19T09:53:03.682Z,19886
2015-02-19T09:53:15.760Z,19888
2015-02-19T09:53:27.838Z,19871
2015-02-19T09:53:39.949Z,19818
2015-02-19T09:53:51.949Z,19682
2015-02-19T09:54:23.856Z,19819
2015-02-19T09:54:35.874Z,19811
2015-02-19T09:54:47.921Z,19695
2015-02-19T09:55:06.734Z,19669
2015-02-19T09:55:25.437Z,19958
2015-02-19T09:55:37.657Z,19769
2015-02-19T09:55:50.314Z,19851
2015-02-19T09:56:03.095Z,19450
2015-02-19T09:56:15.642Z,19640
2015-02-19T09:56:29.486Z,19219
2015-02-19T09:56:42.441Z,19050
2015-02-19T09:56:55.144Z,19335
2015-02-19T09:57:07.409Z,19287
2015-02-19T09:57:33.256Z,18933
2015-02-19T09:57:46.084Z,18966
2015-02-19T09:57:59.037Z,18892
2015-02-19T09:58:11.381Z,18630
2015-02-19T09:58:30.116Z,18813
2015-02-19T09:58:42.538Z,18994
2015-02-19T09:58:54.601Z,19107
2015-02-19T09:59:13.335Z,19147
2015-02-19T09:59:25.351Z,19038
2015-02-19T09:59:37.479Z,19248
2015-02-19T09:59:56.370Z,18984
2015-02-19T10:00:08.416Z,19167
2015-02-19T10:00:20.526Z,19190
2015-02-19T10:00:32.809Z,19307
2015-02-19T10:00:52.387Z,19032
2015-02-19T10:01:04.465Z,18600
2015-02-19T10:01:16.637Z,19068
2015-02-19T10:01:29.137Z,19431
2015-02-19T10:01:41.186Z,19324
2015-02-19T10:02:00.639Z,19754
2015-02-19T10:02:12.733Z,19576
2015-02-19T10:02:31.733Z,19279
2015-02-19T10:02:43.970Z,20007
2015-02-19T10:02:56.720Z,19848
2015-02-19T10:03:08.830Z,19932
2015-02-19T10:03:20.877Z,20049
2015-02-19T10:03:33.644Z,19919
2015-02-19T10:03:52.347Z,19901
2015-02-19T10:04:05.050Z,20139
2015-02-19T10:04:17.160Z,20387
2015-02-19T10:04:36.460Z,20501
2015-02-19T10:04:48.475Z,20364
2015-02-19T10:05:01.288Z,20200
2015-02-19T10:05:13.303Z,20053
2015-02-19T10:05:26.178Z,20018
2015-02-19T10:05:44.821Z,19809
2015-02-19T10:05:57.852Z,19960
2015-02-19T10:06:09.884Z,20011
2015-02-19T10:06:22.384Z,20501
2015-02-19T10:06:34.479Z,20417
2015-02-19T10:06:53.167Z,20640
2015-02-19T10:07:12.323Z,20542
2015-02-19T10:07:24.386Z,20811
2015-02-19T10:07:36.981Z,21108
2015-02-19T10:07:49.044Z,19574
2015-02-19T10:08:07.809Z,21001
2015-02-19T10:08:20.013Z,20892
2015-02-19T10:08:32.153Z,21057
2015-02-19T10:08:44.672Z,21134
2015-02-19T10:08:56.719Z,21536